createdAt,value
2019-02-21T00:01:16.118Z,13.60
2019-02-21T00:03:45.532Z,13.43
2019-02-21T00:06:14.910Z,14.57
2019-02-21T00:08:44.238Z,14.13
2019-02-21T00:11:13.603Z,14.60
2019-02-21T00:13:42.943Z,13.13
2019-02-21T00:16:12.273Z,13.13
2019-02-21T00:18:41.630Z,14.47
2019-02-21T00:21:10.979Z,13.57
2019-02-21T00:23:45.213Z,14.83
2019-02-21T00:26:14.565Z,14.17
2019-02-21T00:28:43.924Z,13.87
2019-02-21T00:31:13.255Z,14.43
2019-02-21T00:33:42.610Z,14.40
2019-02-21T00:36:11.944Z,14.73
2019-02-21T00:38:41.276Z,14.17
2019-02-21T00:41:10.648Z,14.63
2019-02-21T00:43:39.977Z,14.90
2019-02-21T00:46:09.304Z,14.33
2019-02-21T00:48:38.738Z,14.27
2019-02-21T00:51:08.094Z,13.90
2019-02-21T00:53:37.403Z,15.33
2019-02-21T00:56:06.775Z,13.97
2019-02-21T00:58:36.117Z,14.80
2019-02-21T01:01:05.442Z,15.80
2019-02-21T01:03:34.801Z,14.83
2019-02-21T01:06:04.218Z,14.83
2019-02-21T01:08:33.558Z,14.70
2019-02-21T01:11:03.105Z,15.40
2019-02-21T01:13:32.507Z,15.83
2019-02-21T01:16:01.842Z,14.63
2019-02-21T01:18:31.213Z,14.40
2019-02-21T01:21:00.549Z,15.20
2019-02-21T01:23:29.951Z,15.40
2019-02-21T01:25:59.306Z,14.00
2019-02-21T01:28:28.662Z,15.17
2019-02-21T01:30:57.989Z,15.07
2019-02-21T01:33:27.350Z,14.23
2019-02-21T01:35:56.679Z,15.20
2019-02-21T01:38:26.010Z,14.07
2019-02-21T01:40:55.381Z,14.70
2019-02-21T01:43:24.711Z,14.47
2019-02-21T01:45:54.041Z,14.73
2019-02-21T01:48:23.405Z,15.53
2019-02-21T01:50:52.741Z,15.60
2019-02-21T01:53:22.081Z,15.40
2019-02-21T01:55:51.449Z,15.43
2019-02-21T01:58:20.774Z,15.50
2019-02-21T02:00:50.106Z,16.50
2019-02-21T02:03:19.474Z,16.50
2019-02-21T02:05:48.815Z,16.37
2019-02-21T02:08:18.142Z,17.43
2019-02-21T02:10:47.505Z,16.53
2019-02-21T02:13:24.531Z,17.00
2019-02-21T02:15:47.867Z,17.07
2019-02-21T02:18:17.231Z,16.93
2019-02-21T02:20:46.562Z,18.27
2019-02-21T02:23:15.895Z,17.67
2019-02-21T02:25:45.277Z,17.10
2019-02-21T02:28:14.606Z,18.17
2019-02-21T02:30:44.020Z,17.07
2019-02-21T02:33:13.370Z,17.90
2019-02-21T02:35:42.713Z,17.47
2019-02-21T02:38:12.135Z,18.90
2019-02-21T02:40:41.487Z,18.70
2019-02-21T02:43:10.822Z,19.83
2019-02-21T02:45:40.165Z,18.47
2019-02-21T02:48:09.549Z,20.07
2019-02-21T02:50:38.894Z,20.30
2019-02-21T02:53:08.230Z,19.27
2019-02-21T02:55:37.591Z,17.20
2019-02-21T02:58:06.933Z,19.50
2019-02-21T03:00:36.271Z,18.57
2019-02-21T03:03:05.631Z,18.63
2019-02-21T03:05:34.972Z,18.70
2019-02-21T03:08:04.365Z,18.03
2019-02-21T03:10:33.737Z,18.87
2019-02-21T03:13:03.068Z,18.30
2019-02-21T03:15:32.404Z,19.53
2019-02-21T03:18:01.763Z,19.73
2019-02-21T03:20:31.089Z,19.87
2019-02-21T03:23:00.431Z,19.80
2019-02-21T03:25:29.799Z,20.40
2019-02-21T03:27:59.140Z,20.03
2019-02-21T03:30:28.488Z,19.03
2019-02-21T03:32:57.950Z,20.37
2019-02-21T03:35:27.315Z,19.13
2019-02-21T03:37:56.652Z,18.67
2019-02-21T03:40:26.039Z,21.00
2019-02-21T03:42:55.379Z,20.50
2019-02-21T03:45:24.709Z,20.07
2019-02-21T03:47:54.070Z,20.17
2019-02-21T03:50:23.411Z,19.50
2019-02-21T03:52:52.735Z,19.93
2019-02-21T03:55:22.112Z,21.57
2019-02-21T03:57:51.442Z,19.57
2019-02-21T04:00:20.771Z,21.10
2019-02-21T04:02:50.145Z,20.47
2019-02-21T04:05:19.804Z,21.30
2019-02-21T04:07:49.180Z,22.23
2019-02-21T04:10:18.550Z,20.70
2019-02-21T04:12:48.050Z,22.53
2019-02-21T04:15:17.392Z,21.20
2019-02-21T04:17:46.759Z,21.17
2019-02-21T04:20:16.095Z,22.50
2019-02-21T04:22:45.423Z,22.87
2019-02-21T04:25:14.797Z,21.83
2019-02-21T04:27:44.127Z,21.63
2019-02-21T04:30:13.465Z,21.40
2019-02-21T04:32:42.827Z,22.07
2019-02-21T04:35:12.218Z,22.07
2019-02-21T04:37:41.586Z,22.90
2019-02-21T04:40:10.940Z,22.17
2019-02-21T04:42:40.272Z,22.07
2019-02-21T04:45:09.680Z,22.97
2019-02-21T04:47:39.039Z,23.03
2019-02-21T04:50:08.443Z,23.93
2019-02-21T04:52:37.783Z,22.03
2019-02-21T04:55:07.226Z,22.13
2019-02-21T04:57:36.564Z,22.10
2019-02-21T05:00:09.272Z,23.55
2019-02-21T05:02:38.646Z,22.23
2019-02-21T05:05:08.047Z,22.57
2019-02-21T05:07:37.398Z,22.87
2019-02-21T05:10:07.399Z,22.13
2019-02-21T05:12:36.730Z,20.50
2019-02-21T05:15:06.576Z,22.02
2019-02-21T05:17:35.948Z,22.07
2019-02-21T05:20:06.649Z,20.80
2019-02-21T05:22:35.980Z,22.10
2019-02-21T05:25:06.610Z,21.27
2019-02-21T05:27:37.018Z,21.33
2019-02-21T05:30:09.995Z,22.77
2019-02-21T05:32:58.838Z,21.07
2019-02-21T05:35:31.256Z,22.63
2019-02-21T05:38:07.681Z,21.63
2019-02-21T05:40:38.035Z,22.40
2019-02-21T05:43:17.791Z,21.87
2019-02-21T05:46:00.715Z,22.33
2019-02-21T05:48:43.731Z,21.93
2019-02-21T05:51:20.485Z,21.97
2019-02-21T05:54:06.311Z,21.77
2019-02-21T05:56:43.251Z,23.53
2019-02-21T05:59:22.910Z,22.20
2019-02-21T06:02:02.628Z,22.17
2019-02-21T06:04:36.362Z,22.10
2019-02-21T06:07:19.194Z,21.20
2019-02-21T06:10:05.091Z,20.83
2019-02-21T06:12:41.931Z,22.27
2019-02-21T06:15:30.488Z,23.53
2019-02-21T06:18:07.154Z,23.03
2019-02-21T06:20:38.125Z,21.37
2019-02-21T06:23:25.975Z,22.20
2019-02-21T06:25:59.275Z,22.60
2019-02-21T06:28:29.705Z,21.50
2019-02-21T06:31:00.676Z,24.43
2019-02-21T06:33:30.043Z,21.40
2019-02-21T06:35:59.382Z,19.83
2019-02-21T06:38:28.723Z,20.70
2019-02-21T06:40:58.081Z,21.90
2019-02-21T06:43:27.418Z,21.13
2019-02-21T06:45:57.981Z,21.03
2019-02-21T06:48:27.696Z,21.17
2019-02-21T06:50:57.023Z,21.93
2019-02-21T06:53:31.286Z,20.80
2019-02-21T06:56:00.687Z,20.80
2019-02-21T06:58:30.089Z,22.25
2019-02-21T07:00:59.433Z,20.83
2019-02-21T07:03:29.123Z,22.40
2019-02-21T07:05:58.606Z,22.70
2019-02-21T07:08:27.936Z,21.63
2019-02-21T07:11:05.758Z,23.33
2019-02-21T07:13:33.278Z,23.10
2019-02-21T07:16:02.610Z,22.00
2019-02-21T07:18:31.973Z,21.63
2019-02-21T07:21:01.322Z,23.47
2019-02-21T07:23:42.632Z,21.93
2019-02-21T07:26:02.596Z,22.40
2019-02-21T07:28:31.925Z,22.80
2019-02-21T07:31:01.255Z,20.63
2019-02-21T07:33:49.946Z,20.83
2019-02-21T07:36:19.277Z,21.10
2019-02-21T07:38:48.615Z,20.97
2019-02-21T07:41:18.767Z,22.93
2019-02-21T07:44:12.043Z,21.93
2019-02-21T07:46:38.711Z,22.70
2019-02-21T07:49:08.038Z,22.10
2019-02-21T07:51:37.362Z,21.17
2019-02-21T07:54:06.734Z,21.87
2019-02-21T07:56:42.037Z,21.40
2019-02-21T07:59:26.443Z,20.73
2019-02-21T08:01:55.769Z,20.93
2019-02-21T08:04:25.116Z,19.70
2019-02-21T08:06:55.640Z,19.57
2019-02-21T08:09:27.865Z,20.90
2019-02-21T08:11:56.222Z,20.37
2019-02-21T08:14:33.431Z,22.17
2019-02-21T08:17:02.789Z,20.57
2019-02-21T08:19:32.121Z,21.13
2019-02-21T08:22:01.490Z,21.10
2019-02-21T08:24:40.735Z,22.37
2019-02-21T08:27:10.102Z,20.47
2019-02-21T08:29:39.439Z,21.27
2019-02-21T08:32:08.845Z,21.17
2019-02-21T08:34:39.837Z,22.83
2019-02-21T08:37:09.173Z,21.10
2019-02-21T08:39:38.501Z,21.97
2019-02-21T08:42:07.867Z,20.70
2019-02-21T08:44:37.203Z,20.97
2019-02-21T08:47:06.620Z,22.13
2019-02-21T08:49:35.987Z,22.43
2019-02-21T08:52:05.323Z,22.50
2019-02-21T08:54:34.654Z,21.67
2019-02-21T08:57:04.010Z,20.07
2019-02-21T08:59:33.347Z,21.73
2019-02-21T09:02:04.980Z,20.97
2019-02-21T09:04:33.747Z,21.43
2019-02-21T09:07:03.082Z,22.10
2019-02-21T09:09:33.449Z,21.43
2019-02-21T09:12:05.561Z,23.30
2019-02-21T09:14:34.355Z,22.43
2019-02-21T09:17:03.730Z,21.77
2019-02-21T09:19:33.082Z,21.63
2019-02-21T09:22:02.435Z,21.83
2019-02-21T09:24:39.188Z,21.40
2019-02-21T09:27:02.839Z,21.63
2019-02-21T09:29:32.189Z,23.00
2019-02-21T09:32:01.510Z,23.03
2019-02-21T09:34:30.892Z,20.20
2019-02-21T09:37:00.226Z,19.13
2019-02-21T09:39:29.570Z,18.20
2019-02-21T09:41:58.930Z,17.17
2019-02-21T09:44:28.293Z,18.80
2019-02-21T09:46:58.782Z,17.33
2019-02-21T09:49:31.938Z,19.23
2019-02-21T09:52:06.098Z,19.50
2019-02-21T09:54:36.041Z,18.80
2019-02-21T09:57:12.969Z,18.60
2019-02-21T09:59:36.423Z,19.80
2019-02-21T10:05:05.953Z,20.57
2019-02-21T10:07:37.470Z,21.20
2019-02-21T10:10:10.052Z,20.17
2019-02-21T10:12:39.436Z,20.83
2019-02-21T10:15:11.247Z,17.97
2019-02-21T10:17:40.617Z,18.63
2019-02-21T10:20:12.806Z,18.30
2019-02-21T10:22:42.169Z,17.47
2019-02-21T10:25:35.075Z,19.10
2019-02-21T10:28:04.517Z,16.80
2019-02-21T10:30:36.241Z,18.90
2019-02-21T10:33:04.953Z,17.47
2019-02-21T10:35:34.335Z,18.30
2019-02-21T10:38:03.671Z,18.40
2019-02-21T10:40:33.478Z,17.37
2019-02-21T10:43:02.949Z,17.73
2019-02-21T10:45:32.301Z,18.20
2019-02-21T10:48:01.645Z,18.50
2019-02-21T10:50:31.005Z,21.43
2019-02-21T10:53:00.341Z,19.23
2019-02-21T10:55:29.706Z,20.00
2019-02-21T10:57:59.086Z,20.27
2019-02-21T11:00:29.839Z,20.70
2019-02-21T11:02:59.452Z,20.10
2019-02-21T11:05:28.814Z,20.00
2019-02-21T11:07:58.158Z,21.40
2019-02-21T11:10:30.917Z,21.77
2019-02-21T11:13:00.353Z,22.20
2019-02-21T11:15:29.697Z,21.60
2019-02-21T11:17:59.037Z,22.60
2019-02-21T11:20:28.417Z,22.00
2019-02-21T11:22:57.743Z,22.33
2019-02-21T11:25:27.081Z,24.10
2019-02-21T11:27:56.440Z,23.00
2019-02-21T11:30:25.865Z,20.97
2019-02-21T11:32:55.199Z,22.20
2019-02-21T11:35:24.573Z,21.80
2019-02-21T11:37:53.919Z,22.13
2019-02-21T11:40:23.251Z,21.63
2019-02-21T11:42:52.622Z,23.27
2019-02-21T11:45:22.034Z,22.53
2019-02-21T11:47:51.366Z,22.50
2019-02-21T11:50:20.738Z,22.27
2019-02-21T11:52:50.079Z,22.97
2019-02-21T11:55:40.296Z,21.63
2019-02-21T11:58:09.643Z,22.93
2019-02-21T12:00:39.160Z,23.53
2019-02-21T12:03:08.521Z,22.17
2019-02-21T12:05:37.874Z,22.27
2019-02-21T12:08:07.291Z,23.50
2019-02-21T12:10:36.723Z,22.70
2019-02-21T12:13:06.070Z,23.30
2019-02-21T12:15:35.411Z,24.07
2019-02-21T12:18:04.839Z,22.67
2019-02-21T12:20:34.178Z,22.33
2019-02-21T12:23:03.595Z,21.53
2019-02-21T12:25:32.965Z,20.77
2019-02-21T12:28:02.307Z,22.63
2019-02-21T12:30:33.426Z,20.80
2019-02-21T12:33:03.007Z,20.87
2019-02-21T12:35:32.382Z,21.30
2019-02-21T12:38:01.709Z,20.97
2019-02-21T12:40:31.081Z,21.63
2019-02-21T12:43:00.431Z,21.47
2019-02-21T12:45:30.208Z,22.03
2019-02-21T12:47:59.716Z,23.20
2019-02-21T12:50:29.082Z,22.10
2019-02-21T12:52:58.487Z,23.13
2019-02-21T12:55:31.543Z,22.33
2019-02-21T12:57:58.894Z,20.97
2019-02-21T13:00:28.230Z,20.87
2019-02-21T13:02:57.593Z,21.87
2019-02-21T13:05:26.938Z,20.37
2019-02-21T13:07:56.270Z,23.10
2019-02-21T13:10:25.736Z,20.83
2019-02-21T13:12:55.074Z,23.00
2019-02-21T13:15:24.457Z,22.90
2019-02-21T13:17:53.823Z,24.30
2019-02-21T13:20:23.166Z,25.43
2019-02-21T13:22:52.505Z,25.33
2019-02-21T13:25:21.993Z,26.17
2019-02-21T13:27:51.328Z,26.27
2019-02-21T13:30:20.657Z,26.07
2019-02-21T13:32:50.021Z,26.13
2019-02-21T13:35:19.390Z,26.50
2019-02-21T13:37:48.715Z,25.37
2019-02-21T13:40:20.984Z,26.83
2019-02-21T13:42:49.291Z,25.07
2019-02-21T13:45:18.804Z,25.37
2019-02-21T13:47:48.163Z,25.07
2019-02-21T13:50:23.545Z,24.63
2019-02-21T13:52:56.803Z,24.07
2019-02-21T13:55:26.137Z,24.13
2019-02-21T13:57:55.478Z,24.13
2019-02-21T14:00:25.117Z,24.40
2019-02-21T14:02:54.457Z,23.03
2019-02-21T14:05:23.798Z,24.13
2019-02-21T14:07:53.255Z,23.87
2019-02-21T14:10:22.686Z,24.60
2019-02-21T14:12:52.013Z,23.80
2019-02-21T14:15:30.617Z,24.63
2019-02-21T14:17:59.949Z,23.33
2019-02-21T14:20:29.294Z,22.93
2019-02-21T14:22:58.668Z,24.77
2019-02-21T14:25:28.498Z,23.90
2019-02-21T14:27:59.075Z,25.17
2019-02-21T14:30:28.485Z,26.13
2019-02-21T14:33:07.806Z,24.63
2019-02-21T14:35:37.164Z,27.57
2019-02-21T14:38:06.509Z,27.33
2019-02-21T14:40:35.850Z,29.57
2019-02-21T14:43:05.217Z,31.67
2019-02-21T14:45:34.550Z,31.00
2019-02-21T14:48:03.893Z,34.23
2019-02-21T14:50:35.978Z,32.80
2019-02-21T14:53:04.306Z,32.60
2019-02-21T14:55:33.667Z,34.30
2019-02-21T14:58:06.165Z,32.57
2019-02-21T15:00:41.400Z,33.57
2019-02-21T15:03:21.863Z,32.63
2019-02-21T15:05:47.298Z,31.17
2019-02-21T15:08:21.883Z,31.53
2019-02-21T15:10:52.617Z,29.07
2019-02-21T15:13:21.449Z,30.90
2019-02-21T15:15:50.813Z,31.67
2019-02-21T15:18:20.197Z,30.13
2019-02-21T15:20:49.514Z,29.90
2019-02-21T15:23:18.858Z,30.53
2019-02-21T15:25:48.221Z,30.10
2019-02-21T15:28:17.563Z,29.47
2019-02-21T15:30:46.931Z,28.77
2019-02-21T15:33:16.306Z,25.77
2019-02-21T15:35:45.639Z,26.37
2019-02-21T15:38:20.061Z,28.57
2019-02-21T15:40:46.062Z,25.53
2019-02-21T15:43:15.386Z,23.97
2019-02-21T15:45:44.730Z,25.97
2019-02-21T15:48:14.096Z,24.43
2019-02-21T15:50:43.450Z,23.60
2019-02-21T15:53:12.787Z,22.93
2019-02-21T15:55:42.180Z,23.13
2019-02-21T15:58:11.516Z,20.03
2019-02-21T16:00:40.850Z,21.07
2019-02-21T16:03:10.206Z,19.17
2019-02-21T16:05:39.543Z,20.33
2019-02-21T16:08:08.977Z,18.20
2019-02-21T16:10:39.862Z,17.13
2019-02-21T16:13:09.669Z,16.07
2019-02-21T16:15:39.569Z,16.00
2019-02-21T16:18:08.930Z,15.43
2019-02-21T16:20:38.290Z,17.00
2019-02-21T16:23:07.661Z,15.20
2019-02-21T16:25:37.157Z,15.13
2019-02-21T16:28:06.478Z,16.40
2019-02-21T16:30:35.883Z,14.90
2019-02-21T16:33:05.277Z,14.63
2019-02-21T16:35:34.696Z,14.53
2019-02-21T16:38:04.017Z,14.27
2019-02-21T16:40:33.388Z,13.07
2019-02-21T16:43:02.777Z,13.90
2019-02-21T16:45:43.033Z,12.20
2019-02-21T16:48:03.189Z,12.10
2019-02-21T16:50:32.590Z,11.47
2019-02-21T16:53:06.845Z,10.83
2019-02-21T16:55:36.208Z,10.40
2019-02-21T16:58:05.555Z,10.50
2019-02-21T17:00:42.446Z,10.17
2019-02-21T17:03:06.013Z,8.93
2019-02-21T17:05:35.336Z,8.33
2019-02-21T17:08:04.672Z,8.23
2019-02-21T17:10:34.029Z,8.47
2019-02-21T17:13:03.364Z,8.60
2019-02-21T17:15:32.698Z,8.73
2019-02-21T17:18:03.926Z,9.90
2019-02-21T17:20:33.100Z,10.60
2019-02-21T17:23:02.474Z,9.83
2019-02-21T17:25:31.842Z,10.23
2019-02-21T17:28:01.179Z,10.33
2019-02-21T17:30:30.575Z,9.60
2019-02-21T17:32:59.940Z,9.93
2019-02-21T17:35:29.276Z,10.03
2019-02-21T17:37:58.649Z,10.20
2019-02-21T17:40:28.075Z,9.90
2019-02-21T17:42:57.412Z,10.23
2019-02-21T17:45:26.765Z,10.60
2019-02-21T17:47:56.115Z,11.07
2019-02-21T17:50:25.456Z,10.30
2019-02-21T17:52:54.816Z,10.77
2019-02-21T17:55:24.182Z,11.20
2019-02-21T17:57:53.506Z,9.70
2019-02-21T18:00:32.703Z,10.90
2019-02-21T18:03:02.040Z,12.07
2019-02-21T18:05:31.382Z,11.87
2019-02-21T18:08:00.759Z,13.10
2019-02-21T18:10:30.166Z,14.67
2019-02-21T18:12:59.493Z,14.37
2019-02-21T18:15:28.875Z,13.80
2019-02-21T18:17:58.210Z,14.87
2019-02-21T18:20:27.551Z,14.00
2019-02-21T18:22:57.782Z,14.83
2019-02-21T18:25:36.455Z,15.07
2019-02-21T18:28:25.174Z,15.47
2019-02-21T18:30:54.512Z,17.10
2019-02-21T18:33:23.845Z,16.33
2019-02-21T18:35:53.213Z,16.13
2019-02-21T18:38:22.547Z,16.80
2019-02-21T18:40:51.893Z,17.40
2019-02-21T18:43:21.269Z,17.87
2019-02-21T18:45:50.673Z,18.50
2019-02-21T18:48:20.002Z,20.30
2019-02-21T18:50:49.399Z,19.40
2019-02-21T18:53:18.775Z,19.47
2019-02-21T18:55:48.109Z,19.87
2019-02-21T18:58:17.542Z,18.43
2019-02-21T19:00:46.873Z,19.47
2019-02-21T19:03:16.207Z,19.87
2019-02-21T19:05:45.561Z,19.33
2019-02-21T19:08:14.970Z,17.67
2019-02-21T19:10:44.376Z,18.93
2019-02-21T19:13:13.739Z,20.27
2019-02-21T19:15:43.206Z,20.37
2019-02-21T19:18:12.557Z,19.33
2019-02-21T19:20:42.002Z,22.30
2019-02-21T19:23:11.310Z,20.73
2019-02-21T19:25:40.758Z,22.43
2019-02-21T19:28:10.166Z,23.77
2019-02-21T19:30:48.374Z,23.77
2019-02-21T19:33:17.802Z,22.33
2019-02-21T19:35:48.611Z,23.73
2019-02-21T19:38:21.363Z,24.53
2019-02-21T19:40:55.035Z,24.33
2019-02-21T19:43:30.843Z,24.80
2019-02-21T19:46:00.247Z,25.00
2019-02-21T19:48:29.630Z,26.63
2019-02-21T19:50:58.969Z,26.20
2019-02-21T19:53:28.334Z,26.10
2019-02-21T19:55:57.671Z,25.50
2019-02-21T19:58:27.095Z,25.20
2019-02-21T20:00:56.645Z,28.43
2019-02-21T20:03:31.024Z,25.93
2019-02-21T20:06:00.361Z,26.40
2019-02-21T20:08:29.726Z,26.30
2019-02-21T20:10:59.130Z,26.00
2019-02-21T20:13:28.462Z,28.10
2019-02-21T20:15:57.834Z,27.27
2019-02-21T20:18:27.472Z,26.60
2019-02-21T20:21:16.237Z,28.80
2019-02-21T20:23:45.680Z,27.63
2019-02-21T20:26:18.336Z,29.73
2019-02-21T20:28:46.135Z,28.97
2019-02-21T20:31:15.482Z,28.57
2019-02-21T20:33:44.818Z,28.27
2019-02-21T20:36:14.190Z,28.97
2019-02-21T20:38:43.534Z,27.67
2019-02-21T20:41:12.926Z,28.60
2019-02-21T20:43:42.309Z,29.40
2019-02-21T20:46:11.651Z,29.13
2019-02-21T20:48:41.063Z,28.07
2019-02-21T20:51:10.423Z,28.40
2019-02-21T20:53:39.762Z,29.83
2019-02-21T20:56:09.102Z,29.23
2019-02-21T20:58:38.483Z,29.80
2019-02-21T21:01:08.382Z,30.87
2019-02-21T21:03:37.724Z,29.67
2019-02-21T21:06:07.099Z,29.73
2019-02-21T21:08:43.352Z,29.60
2019-02-21T21:11:07.542Z,30.47
2019-02-21T21:13:36.903Z,31.50
2019-02-21T21:16:06.244Z,30.23
2019-02-21T21:18:35.582Z,29.00
2019-02-21T21:21:04.942Z,29.33
2019-02-21T21:23:34.287Z,30.97
2019-02-21T21:26:03.626Z,32.37
2019-02-21T21:28:32.986Z,30.23
2019-02-21T21:31:02.332Z,31.20
2019-02-21T21:33:31.659Z,30.20
2019-02-21T21:36:01.018Z,31.90
2019-02-21T21:38:30.351Z,30.00
2019-02-21T21:40:59.685Z,29.97
2019-02-21T21:43:29.053Z,28.67
2019-02-21T21:45:58.382Z,30.67
2019-02-21T21:48:27.723Z,28.73
2019-02-21T21:50:57.087Z,29.33
2019-02-21T21:53:26.426Z,30.17
2019-02-21T21:55:55.757Z,29.97
2019-02-21T21:58:25.124Z,28.27
2019-02-21T22:00:54.470Z,28.30
2019-02-21T22:03:23.807Z,28.07
2019-02-21T22:05:53.169Z,28.20
2019-02-21T22:08:41.838Z,27.00
2019-02-21T22:11:11.208Z,26.53
2019-02-21T22:13:40.546Z,26.20
2019-02-21T22:16:09.882Z,25.30
2019-02-21T22:18:39.247Z,25.30
2019-02-21T22:21:08.582Z,24.40
2019-02-21T22:23:37.929Z,25.20
2019-02-21T22:26:07.291Z,23.83
2019-02-21T22:28:36.629Z,25.63
2019-02-21T22:31:05.958Z,24.20
2019-02-21T22:33:36.304Z,25.80
2019-02-21T22:36:05.741Z,24.73
2019-02-21T22:38:35.075Z,25.30
2019-02-21T22:41:04.453Z,25.73
2019-02-21T22:43:33.773Z,26.03
2019-02-21T22:46:03.118Z,25.30
2019-02-21T22:48:32.488Z,26.73
2019-02-21T22:51:01.814Z,27.57
2019-02-21T22:53:31.150Z,26.53
2019-02-21T22:56:00.509Z,26.57
2019-02-21T22:58:29.843Z,27.03
2019-02-21T23:01:03.029Z,27.23
2019-02-21T23:03:56.134Z,26.90
2019-02-21T23:06:37.134Z,26.33
2019-02-21T23:09:09.283Z,27.57
2019-02-21T23:11:38.618Z,26.33
2019-02-21T23:14:08.029Z,27.87
2019-02-21T23:16:37.472Z,26.70
2019-02-21T23:19:06.805Z,27.57
2019-02-21T23:21:36.221Z,26.03
2019-02-21T23:24:05.660Z,25.07
2019-02-21T23:26:34.992Z,29.27
2019-02-21T23:29:04.322Z,27.40
2019-02-21T23:31:33.699Z,27.57
2019-02-21T23:34:04.610Z,26.77
2019-02-21T23:36:34.032Z,28.33
2019-02-21T23:39:04.034Z,25.77
2019-02-21T23:41:33.393Z,24.63
2019-02-21T23:44:02.783Z,26.73
2019-02-21T23:46:32.166Z,26.43
2019-02-21T23:49:01.508Z,26.40
2019-02-21T23:51:30.852Z,25.23
2019-02-21T23:54:03.160Z,27.10
2019-02-21T23:56:31.250Z,23.27
2019-02-21T23:59:00.586Z,22.97
